sensor_id;sensor_type;location;lat;lon;timestamp;pressure;altitude;pressure_sealevel;temperature;humidity
77279;BME280;66332;50.436;15.378;2023-01-26T05:02:07;98771.00;;;-0.60;85.44
77279;BME280;66332;50.436;15.378;2023-01-26T05:06:48;98770.38;;;-0.63;86.15
77279;BME280;66332;50.436;15.378;2023-01-26T05:11:29;98777.31;;;-0.64;86.19
77279;BME280;66332;50.436;15.378;2023-01-26T05:16:10;98779.53;;;-0.72;86.36
77279;BME280;66332;50.436;15.378;2023-01-26T05:20:53;98769.53;;;-0.37;82.27
77279;BME280;66332;50.436;15.378;2023-01-26T05:25:34;98762.44;;;-0.60;83.56
77279;BME280;66332;50.436;15.378;2023-01-26T05:30:15;98760.50;;;-0.71;84.20
77279;BME280;66332;50.436;15.378;2023-01-26T05:34:57;98765.06;;;-0.48;83.05
77279;BME280;66332;50.436;15.378;2023-01-26T05:39:37;98767.03;;;-0.24;82.97
77279;BME280;66332;50.436;15.378;2023-01-26T05:44:18;98759.47;;;-0.27;82.16
77279;BME280;66332;50.436;15.378;2023-01-26T05:48:59;98750.53;;;-0.09;84.59
77279;BME280;66332;50.436;15.378;2023-01-26T05:53:40;98756.78;;;-0.26;83.55
77279;BME280;66332;50.436;15.378;2023-01-26T05:58:21;98753.72;;;-0.45;84.99
77279;BME280;66332;50.436;15.378;2023-01-26T06:03:01;98745.44;;;-0.50;85.17
77279;BME280;66332;50.436;15.378;2023-01-26T06:07:42;98739.78;;;-0.84;87.18
77279;BME280;66332;50.436;15.378;2023-01-26T06:12:23;98746.31;;;-0.64;85.74
77279;BME280;66332;50.436;15.378;2023-01-26T06:17:03;98739.25;;;-0.48;85.65
77279;BME280;66332;50.436;15.378;2023-01-26T06:21:44;98741.44;;;-0.41;85.94
77279;BME280;66332;50.436;15.378;2023-01-26T06:26:25;98732.94;;;-0.71;86.30
77279;BME280;66332;50.436;15.378;2023-01-26T06:31:07;98732.06;;;-0.84;87.28
77279;BME280;66332;50.436;15.378;2023-01-26T06:35:47;98732.03;;;-0.70;86.61
77279;BME280;66332;50.436;15.378;2023-01-26T06:40:28;98731.38;;;-0.46;85.65
77279;BME280;66332;50.436;15.378;2023-01-26T06:45:09;98733.25;;;-0.48;85.28
77279;BME280;66332;50.436;15.378;2023-01-26T06:49:50;98733.41;;;-0.64;86.04
77279;BME280;66332;50.436;15.378;2023-01-26T06:54:31;98736.09;;;-0.80;86.54
77279;BME280;66332;50.436;15.378;2023-01-26T06:59:11;98743.31;;;-0.85;87.18
77279;BME280;66332;50.436;15.378;2023-01-26T07:03:53;98748.53;;;-0.72;86.91
77279;BME280;66332;50.436;15.378;2023-01-26T07:08:34;98746.84;;;-0.73;86.78
77279;BME280;66332;50.436;15.378;2023-01-26T07:13:15;98731.16;;;-0.56;85.92
77279;BME280;66332;50.436;15.378;2023-01-26T07:17:56;98740.59;;;-0.69;86.51
77279;BME280;66332;50.436;15.378;2023-01-26T07:22:37;98738.84;;;-0.68;85.63
77279;BME280;66332;50.436;15.378;2023-01-26T07:27:18;98737.22;;;-0.84;86.82
77279;BME280;66332;50.436;15.378;2023-01-26T07:31:59;98730.81;;;-0.64;86.70
77279;BME280;66332;50.436;15.378;2023-01-26T07:36:39;98730.72;;;-0.35;84.56
77279;BME280;66332;50.436;15.378;2023-01-26T07:41:20;98734.72;;;-0.44;85.10
77279;BME280;66332;50.436;15.378;2023-01-26T07:46:01;98732.31;;;-0.47;85.78
77279;BME280;66332;50.436;15.378;2023-01-26T07:50:43;98739.38;;;-0.63;85.96
77279;BME280;66332;50.436;15.378;2023-01-26T07:55:24;98733.25;;;-0.48;85.85
77279;BME280;66332;50.436;15.378;2023-01-26T08:00:06;98741.84;;;-0.48;85.45
77279;BME280;66332;50.436;15.378;2023-01-26T08:04:47;98733.78;;;-0.43;85.94
77279;BME280;66332;50.436;15.378;2023-01-26T08:09:28;98736.53;;;-0.19;83.49
77279;BME280;66332;50.436;15.378;2023-01-26T08:14:09;98737.09;;;-0.68;86.57
77279;BME280;66332;50.436;15.378;2023-01-26T08:18:50;98737.19;;;-0.70;86.94
77279;BME280;66332;50.436;15.378;2023-01-26T08:23:31;98734.75;;;-0.58;86.98
77279;BME280;66332;50.436;15.378;2023-01-26T08:28:12;98734.75;;;-0.58;87.17
77279;BME280;66332;50.436;15.378;2023-01-26T08:32:53;98732.16;;;-0.31;85.67
77279;BME280;66332;50.436;15.378;2023-01-26T08:37:33;98741.69;;;-0.73;86.60
77279;BME280;66332;50.436;15.378;2023-01-26T08:42:14;98738.47;;;-0.62;86.98
77279;BME280;66332;50.436;15.378;2023-01-26T08:46:55;98733.56;;;-0.67;87.59
77279;BME280;66332;50.436;15.378;2023-01-26T08:51:36;98722.56;;;-0.56;87.04
77279;BME280;66332;50.436;15.378;2023-01-26T08:56:17;98724.66;;;-0.76;88.01
77279;BME280;66332;50.436;15.378;2023-01-26T09:00:58;98727.88;;;-0.72;88.31
77279;BME280;66332;50.436;15.378;2023-01-26T09:05:39;98733.47;;;-0.65;88.24
77279;BME280;66332;50.436;15.378;2023-01-26T09:10:20;98741.03;;;-0.62;87.44
77279;BME280;66332;50.436;15.378;2023-01-26T09:15:01;98737.38;;;-0.73;88.78
77279;BME280;66332;50.436;15.378;2023-01-26T09:19:42;98728.88;;;-0.60;87.55
77279;BME280;66332;50.436;15.378;2023-01-26T09:24:23;98734.28;;;-0.51;87.10
77279;BME280;66332;50.436;15.378;2023-01-26T09:29:04;98727.84;;;-0.58;87.06
77279;BME280;66332;50.436;15.378;2023-01-26T09:33:45;98730.28;;;-0.42;87.07
77279;BME280;66332;50.436;15.378;2023-01-26T09:38:27;98720.72;;;-0.27;85.70
77279;BME280;66332;50.436;15.378;2023-01-26T09:43:23;98715.84;;;-0.59;87.71
77279;BME280;66332;50.436;15.378;2023-01-26T09:48:31;98714.78;;;-0.42;86.56
77279;BME280;66332;50.436;15.378;2023-01-26T09:53:23;98705.34;;;-0.43;86.43
77279;BME280;66332;50.436;15.378;2023-01-26T09:58:13;98714.19;;;-0.33;84.88
77279;BME280;66332;50.436;15.378;2023-01-26T10:07:51;98713.41;;;-0.48;86.85
77279;BME280;66332;50.436;15.378;2023-01-26T10:12:35;98710.81;;;-0.20;86.02
77279;BME280;66332;50.436;15.378;2023-01-26T10:17:26;98701.38;;;-0.21;84.61
77279;BME280;66332;50.436;15.378;2023-01-26T10:22:17;98695.72;;;-0.54;85.55
77279;BME280;66332;50.436;15.378;2023-01-26T10:27:00;98688.72;;;-0.12;84.55
77279;BME280;66332;50.436;15.378;2023-01-26T10:31:40;98695.72;;;-0.14;84.42
77279;BME280;66332;50.436;15.378;2023-01-26T10:36:22;98698.00;;;-0.09;83.32
77279;BME280;66332;50.436;15.378;2023-01-26T10:46:01;98688.19;;;-0.17;83.23
77279;BME280;66332;50.436;15.378;2023-01-26T10:50:43;98679.22;;;0.27;82.48
77279;BME280;66332;50.436;15.378;2023-01-26T10:55:24;98682.84;;;0.12;81.71
77279;BME280;66332;50.436;15.378;2023-01-26T11:05:14;98672.94;;;0.18;80.69
77279;BME280;66332;50.436;15.378;2023-01-26T11:09:55;98680.91;;;-0.25;82.54
77279;BME280;66332;50.436;15.378;2023-01-26T11:14:36;98669.19;;;0.10;82.62
77279;BME280;66332;50.436;15.378;2023-01-26T11:19:42;98667.31;;;0.12;81.60
77279;BME280;66332;50.436;15.378;2023-01-26T11:24:33;98665.38;;;0.15;81.75
77279;BME280;66332;50.436;15.378;2023-01-26T11:34:31;98652.41;;;-0.10;82.60
77279;BME280;66332;50.436;15.378;2023-01-26T11:45:18;98633.63;;;0.01;82.25
77279;BME280;66332;50.436;15.378;2023-01-26T12:00:15;98638.91;;;0.25;80.90
77279;BME280;66332;50.436;15.378;2023-01-26T12:09:51;98622.75;;;0.08;81.39
77279;BME280;66332;50.436;15.378;2023-01-26T12:24:49;98609.84;;;0.08;82.27
77279;BME280;66332;50.436;15.378;2023-01-26T12:34:28;98609.31;;;0.16;81.95
77279;BME280;66332;50.436;15.378;2023-01-26T12:39:26;98599.69;;;-0.08;82.83
77279;BME280;66332;50.436;15.378;2023-01-26T12:54:41;98586.06;;;0.16;83.56
77279;BME280;66332;50.436;15.378;2023-01-26T12:59:34;98574.16;;;0.13;83.70
77279;BME280;66332;50.436;15.378;2023-01-26T13:04:16;98562.97;;;0.26;82.15
77279;BME280;66332;50.436;15.378;2023-01-26T13:18:53;98573.25;;;-0.11;83.95
77279;BME280;66332;50.436;15.378;2023-01-26T13:28:26;98575.22;;;-0.02;83.99
77279;BME280;66332;50.436;15.378;2023-01-26T13:33:18;98578.91;;;-0.32;85.67
77279;BME280;66332;50.436;15.378;2023-01-26T13:38:25;98576.34;;;-0.19;85.60
77279;BME280;66332;50.436;15.378;2023-01-26T13:48:39;98576.44;;;-0.08;85.38
77279;BME280;66332;50.436;15.378;2023-01-26T13:53:45;98569.59;;;-0.21;85.76
77279;BME280;66332;50.436;15.378;2023-01-26T13:58:27;98573.25;;;-0.11;86.56
77279;BME280;66332;50.436;15.378;2023-01-26T14:03:20;98561.75;;;-0.20;85.50
77279;BME280;66332;50.436;15.378;2023-01-26T14:08:05;98569.41;;;-0.06;85.85
77279;BME280;66332;50.436;15.378;2023-01-26T14:12:48;98552.78;;;-0.27;86.64
77279;BME280;66332;50.436;15.378;2023-01-26T14:17:33;98558.16;;;-0.05;89.28
77279;BME280;66332;50.436;15.378;2023-01-26T14:22:16;98552.78;;;-0.27;86.54
77279;BME280;66332;50.436;15.378;2023-01-26T14:26:57;98561.56;;;-0.17;85.89
77279;BME280;66332;50.436;15.378;2023-01-26T14:31:39;98561.75;;;-0.20;87.14
77279;BME280;66332;50.436;15.378;2023-01-26T14:36:20;98560.50;;;0.11;85.49
77279;BME280;66332;50.436;15.378;2023-01-26T14:41:01;98560.06;;;0.17;85.06
77279;BME280;66332;50.436;15.378;2023-01-26T14:50:53;98558.03;;;-0.29;86.84
77279;BME280;66332;50.436;15.378;2023-01-26T14:55:34;98555.53;;;0.08;86.32
77279;BME280;66332;50.436;15.378;2023-01-26T15:05:20;98561.66;;;-0.31;87.44
77279;BME280;66332;50.436;15.378;2023-01-26T15:15:15;98552.66;;;-0.13;86.84
77279;BME280;66332;50.436;15.378;2023-01-26T15:19:56;98558.56;;;-0.24;87.52
77279;BME280;66332;50.436;15.378;2023-01-26T15:24:37;98553.06;;;0.07;85.59
77279;BME280;66332;50.436;15.378;2023-01-26T15:29:27;98563.00;;;0.13;85.19
77279;BME280;66332;50.436;15.378;2023-01-26T15:34:36;98563.41;;;0.07;85.52
77279;BME280;66332;50.436;15.378;2023-01-26T15:39:18;98579.56;;;-0.03;85.83
77279;BME280;66332;50.436;15.378;2023-01-26T15:43:59;98565.72;;;-0.27;85.60
77279;BME280;66332;50.436;15.378;2023-01-26T15:48:40;98575.72;;;-0.10;85.28
77279;BME280;66332;50.436;15.378;2023-01-26T15:53:22;98571.78;;;0.10;84.68
77279;BME280;66332;50.436;15.378;2023-01-26T15:58:03;98567.84;;;0.17;85.99
77279;BME280;66332;50.436;15.378;2023-01-26T16:02:44;98553.50;;;-0.25;86.94
77279;BME280;66332;50.436;15.378;2023-01-26T16:07:25;98574.88;;;0.03;86.41
77279;BME280;66332;50.436;15.378;2023-01-26T16:12:13;98572.19;;;-0.34;86.45
77279;BME280;66332;50.436;15.378;2023-01-26T16:16:55;98566.72;;;-0.17;86.40
77279;BME280;66332;50.436;15.378;2023-01-26T16:21:36;98567.63;;;-0.31;87.64
77279;BME280;66332;50.436;15.378;2023-01-26T16:26:19;98568.38;;;-0.16;87.54
77279;BME280;66332;50.436;15.378;2023-01-26T16:31:00;98565.06;;;0.08;86.21
77279;BME280;66332;50.436;15.378;2023-01-26T16:35:41;98570.56;;;0.03;86.64
77279;BME280;66332;50.436;15.378;2023-01-26T16:40:22;98559.59;;;-0.13;87.05
77279;BME280;66332;50.436;15.378;2023-01-26T16:45:03;98569.41;;;-0.06;86.67
77279;BME280;66332;50.436;15.378;2023-01-26T16:49:44;98565.06;;;-0.05;87.36
77279;BME280;66332;50.436;15.378;2023-01-26T16:54:25;98566.19;;;-0.22;87.58
77279;BME280;66332;50.436;15.378;2023-01-26T16:59:06;98575.84;;;-0.24;88.09
77279;BME280;66332;50.436;15.378;2023-01-26T17:03:48;98573.03;;;-0.21;87.36
77279;BME280;66332;50.436;15.378;2023-01-26T17:08:29;98562.50;;;-0.18;87.61
77279;BME280;66332;50.436;15.378;2023-01-26T17:13:14;98567.75;;;-0.19;86.68
77279;BME280;66332;50.436;15.378;2023-01-26T17:17:56;98577.88;;;-0.16;87.70
77279;BME280;66332;50.436;15.378;2023-01-26T17:22:37;98579.53;;;-0.15;86.66
77279;BME280;66332;50.436;15.378;2023-01-26T17:27:18;98579.97;;;0.04;86.41
77279;BME280;66332;50.436;15.378;2023-01-26T17:31:59;98576.00;;;0.11;86.42
77279;BME280;66332;50.436;15.378;2023-01-26T17:36:41;98579.22;;;0.15;86.54
77279;BME280;66332;50.436;15.378;2023-01-26T17:41:24;98572.41;;;0.14;85.98
77279;BME280;66332;50.436;15.378;2023-01-26T17:46:18;98581.63;;;-0.08;86.37
77279;BME280;66332;50.436;15.378;2023-01-26T17:50:59;98579.56;;;-0.03;86.64
77279;BME280;66332;50.436;15.378;2023-01-26T17:55:40;98579.97;;;0.04;86.23
77279;BME280;66332;50.436;15.378;2023-01-26T18:00:22;98560.53;;;-0.02;87.62
77279;BME280;66332;50.436;15.378;2023-01-26T18:05:03;98584.47;;;0.26;85.66
77279;BME280;66332;50.436;15.378;2023-01-26T18:09:44;98571.56;;;0.13;85.48
77279;BME280;66332;50.436;15.378;2023-01-26T18:14:26;98570.63;;;0.14;85.48
77279;BME280;66332;50.436;15.378;2023-01-26T18:19:07;98580.16;;;-0.25;87.00
77279;BME280;66332;50.436;15.378;2023-01-26T18:23:49;98579.13;;;-0.22;87.12
77279;BME280;66332;50.436;15.378;2023-01-26T18:28:31;98569.00;;;-0.25;86.61
77279;BME280;66332;50.436;15.378;2023-01-26T18:33:12;98573.81;;;-0.46;88.10
77279;BME280;66332;50.436;15.378;2023-01-26T18:37:53;98567.22;;;-0.37;87.83
77279;BME280;66332;50.436;15.378;2023-01-26T18:42:34;98574.75;;;-0.47;88.20
77279;BME280;66332;50.436;15.378;2023-01-26T18:47:15;98574.69;;;-0.45;89.13
77279;BME280;66332;50.436;15.378;2023-01-26T18:51:56;98585.00;;;-0.45;88.84
77279;BME280;66332;50.436;15.378;2023-01-26T18:56:37;98572.38;;;-0.50;88.68
77279;BME280;66332;50.436;15.378;2023-01-26T19:01:19;98572.50;;;-0.52;88.75
77279;BME280;66332;50.436;15.378;2023-01-26T19:06:02;98571.16;;;-0.44;88.60
77279;BME280;66332;50.436;15.378;2023-01-26T19:10:43;98586.53;;;-0.43;88.75
77279;BME280;66332;50.436;15.378;2023-01-26T19:15:24;98578.09;;;-0.32;89.31
77279;BME280;66332;50.436;15.378;2023-01-26T19:20:06;98576.53;;;-0.35;88.51
77279;BME280;66332;50.436;15.378;2023-01-26T19:24:47;98580.88;;;-0.35;88.15
77279;BME280;66332;50.436;15.378;2023-01-26T19:29:27;98579.31;;;-0.25;88.07
77279;BME280;66332;50.436;15.378;2023-01-26T19:34:11;98587.31;;;-0.03;87.00
77279;BME280;66332;50.436;15.378;2023-01-26T19:38:52;98589.16;;;-0.17;87.38
77279;BME280;66332;50.436;15.378;2023-01-26T19:43:34;98582.09;;;-0.41;87.85
77279;BME280;66332;50.436;15.378;2023-01-26T19:48:15;98573.53;;;-0.41;88.42
77279;BME280;66332;50.436;15.378;2023-01-26T19:52:56;98575.78;;;-0.50;88.74
77279;BME280;66332;50.436;15.378;2023-01-26T19:57:38;98583.66;;;-0.38;88.51
77279;BME280;66332;50.436;15.378;2023-01-26T20:02:19;98572.22;;;-0.09;86.84
77279;BME280;66332;50.436;15.378;2023-01-26T20:07:00;98577.25;;;-0.07;86.85
77279;BME280;66332;50.436;15.378;2023-01-26T20:11:44;98568.06;;;-0.11;86.63
77279;BME280;66332;50.436;15.378;2023-01-26T20:16:26;98569.81;;;0.14;85.67
77279;BME280;66332;50.436;15.378;2023-01-26T20:21:07;98579.97;;;0.04;85.70
77279;BME280;66332;50.436;15.378;2023-01-26T20:25:48;98581.31;;;0.10;85.94
77279;BME280;66332;50.436;15.378;2023-01-26T20:30:31;98583.16;;;-0.05;85.80
77279;BME280;66332;50.436;15.378;2023-01-26T20:35:12;98585.03;;;-0.07;86.83
77279;BME280;66332;50.436;15.378;2023-01-26T20:39:54;98589.88;;;0.10;85.47
77279;BME280;66332;50.436;15.378;2023-01-26T20:44:36;98579.94;;;-0.21;86.97
77279;BME280;66332;50.436;15.378;2023-01-26T20:49:17;98572.09;;;-0.07;85.86
77279;BME280;66332;50.436;15.378;2023-01-26T20:53:58;98570.13;;;0.09;85.42
77279;BME280;66332;50.436;15.378;2023-01-26T20:58:41;98581.94;;;0.01;86.06
77279;BME280;66332;50.436;15.378;2023-01-26T21:03:25;98581.63;;;-0.08;87.07
77279;BME280;66332;50.436;15.378;2023-01-26T21:08:06;98559.28;;;-0.21;86.77
77279;BME280;66332;50.436;15.378;2023-01-26T21:12:47;98575.41;;;-0.05;86.37
77279;BME280;66332;50.436;15.378;2023-01-26T21:17:29;98573.97;;;0.04;85.94
77279;BME280;66332;50.436;15.378;2023-01-26T21:22:11;98572.50;;;0.12;85.51
77279;BME280;66332;50.436;15.378;2023-01-26T21:26:52;98565.91;;;-0.05;86.69
77279;BME280;66332;50.436;15.378;2023-01-26T21:31:33;98563.22;;;0.10;85.98
77279;BME280;66332;50.436;15.378;2023-01-26T21:36:16;98579.13;;;0.04;85.86
77279;BME280;66332;50.436;15.378;2023-01-26T21:41:05;98568.06;;;-0.11;86.19
77279;BME280;66332;50.436;15.378;2023-01-26T21:46:05;98570.34;;;-0.19;87.34
77279;BME280;66332;50.436;15.378;2023-01-26T21:50:46;98558.13;;;0.08;86.07
77279;BME280;66332;50.436;15.378;2023-01-26T21:55:46;98558.84;;;0.10;86.38
77279;BME280;66332;50.436;15.378;2023-01-26T22:00:27;98541.28;;;-0.10;86.96
77279;BME280;66332;50.436;15.378;2023-01-26T22:05:07;98541.97;;;0.17;85.33
77279;BME280;66332;50.436;15.378;2023-01-26T22:09:48;98554.41;;;0.12;85.26
77279;BME280;66332;50.436;15.378;2023-01-26T22:14:29;98553.88;;;0.20;85.20
77279;BME280;66332;50.436;15.378;2023-01-26T22:19:11;98555.34;;;0.11;85.39
77279;BME280;66332;50.436;15.378;2023-01-26T22:23:52;98558.38;;;-0.20;86.50
77279;BME280;66332;50.436;15.378;2023-01-26T22:28:34;98555.56;;;-0.17;86.78
77279;BME280;66332;50.436;15.378;2023-01-26T22:33:15;98542.22;;;-0.37;87.63
77279;BME280;66332;50.436;15.378;2023-01-26T22:37:56;98537.16;;;-0.13;86.03
77279;BME280;66332;50.436;15.378;2023-01-26T22:42:38;98543.47;;;-0.04;85.64
77279;BME280;66332;50.436;15.378;2023-01-26T22:47:18;98516.28;;;-0.10;85.35
77279;BME280;66332;50.436;15.378;2023-01-26T22:51:59;98523.41;;;-0.13;86.28
